createdAt,value
2022-07-27T00:00:49.803Z,47.74
2022-07-27T00:03:16.887Z,47.33
2022-07-27T00:05:43.927Z,47.32
2022-07-27T00:08:10.849Z,47.08
2022-07-27T00:10:38.091Z,47.57
2022-07-27T00:13:06.533Z,47.93
2022-07-27T00:15:34.511Z,46.81
2022-07-27T00:18:01.546Z,46.18
2022-07-27T00:20:30.414Z,45.72
2022-07-27T00:22:58.562Z,46.62
2022-07-27T00:25:29.554Z,45.87
2022-07-27T00:27:59.521Z,46.36
2022-07-27T00:30:26.952Z,45.67
2022-07-27T00:32:54.362Z,45.49
2022-07-27T00:35:21.406Z,45.97
2022-07-27T00:37:48.431Z,45.22
2022-07-27T00:40:15.938Z,45.01
2022-07-27T00:42:43.024Z,44.82
2022-07-27T00:45:10.518Z,44.56
2022-07-27T00:47:37.498Z,44.52
2022-07-27T00:50:05.174Z,44.72
2022-07-27T00:52:32.571Z,44.87
2022-07-27T00:55:00.013Z,44.51
2022-07-27T00:57:28.319Z,44.30
2022-07-27T00:59:55.558Z,44.78
2022-07-27T01:02:23.373Z,44.27
2022-07-27T01:04:53.603Z,43.92
2022-07-27T01:07:22.641Z,44.56
2022-07-27T01:09:57.071Z,44.67
2022-07-27T01:12:33.006Z,44.15
2022-07-27T01:15:00.305Z,43.97
2022-07-27T01:17:31.601Z,44.02
2022-07-27T01:19:59.326Z,44.35
2022-07-27T01:22:26.453Z,44.64
2022-07-27T01:24:53.476Z,44.55
2022-07-27T01:27:20.702Z,44.89
2022-07-27T01:29:48.003Z,44.29
2022-07-27T01:32:15.001Z,44.73
2022-07-27T01:34:42.005Z,44.18
2022-07-27T01:37:08.947Z,43.86
2022-07-27T01:39:36.111Z,44.25
2022-07-27T01:42:05.052Z,44.46
2022-07-27T01:44:31.967Z,46.58
2022-07-27T01:46:58.941Z,44.85
2022-07-27T01:49:26.066Z,44.47
2022-07-27T01:51:53.182Z,44.88
2022-07-27T01:54:20.195Z,44.06
2022-07-27T01:56:47.261Z,44.50
2022-07-27T01:59:16.629Z,44.03
2022-07-27T02:01:45.354Z,44.60
2022-07-27T02:04:12.538Z,44.30
2022-07-27T02:06:40.017Z,44.07
2022-07-27T02:09:07.019Z,44.09
2022-07-27T02:11:52.509Z,47.49
2022-07-27T02:14:21.415Z,46.88
2022-07-27T02:16:49.938Z,44.65
2022-07-27T02:19:18.197Z,44.75
2022-07-27T02:21:45.471Z,44.42
2022-07-27T02:24:12.548Z,45.46
2022-07-27T02:26:39.934Z,44.53
2022-07-27T02:29:07.517Z,44.49
2022-07-27T02:31:34.461Z,44.25
2022-07-27T02:34:01.781Z,44.68
2022-07-27T02:36:31.582Z,44.29
2022-07-27T02:38:58.874Z,44.95
2022-07-27T02:41:26.060Z,46.45
2022-07-27T02:43:53.158Z,44.79
2022-07-27T02:46:20.232Z,44.45
2022-07-27T02:48:47.263Z,44.55
2022-07-27T02:51:15.354Z,100.00
2022-07-27T02:53:42.654Z,100.00
2022-07-27T02:56:09.770Z,100.00
2022-07-27T02:58:37.722Z,100.00
2022-07-27T03:01:06.020Z,100.00
2022-07-27T03:03:37.123Z,100.00
2022-07-27T03:06:08.760Z,100.00
2022-07-27T03:08:36.308Z,100.00
2022-07-27T03:11:03.328Z,100.00
2022-07-27T03:13:30.524Z,100.00
2022-07-27T03:15:58.339Z,100.00
2022-07-27T03:18:25.697Z,100.00
2022-07-27T03:20:52.758Z,100.00
2022-07-27T03:23:19.784Z,100.00
2022-07-27T03:25:46.808Z,100.00
2022-07-27T03:28:13.861Z,100.00
2022-07-27T03:30:40.854Z,100.00
2022-07-27T03:33:07.963Z,100.00
2022-07-27T03:35:35.264Z,100.00
2022-07-27T03:38:02.370Z,100.00
2022-07-27T03:40:32.181Z,100.00
2022-07-27T03:42:59.818Z,100.00
2022-07-27T03:45:27.225Z,100.00
2022-07-27T03:47:54.344Z,100.00
2022-07-27T03:50:21.873Z,100.00
2022-07-27T03:52:48.865Z,100.00
2022-07-27T03:55:15.869Z,100.00
2022-07-27T03:57:42.776Z,100.00
2022-07-27T04:00:14.155Z,100.00
2022-07-27T04:02:41.993Z,100.00
2022-07-27T04:05:10.156Z,100.00
2022-07-27T04:07:37.132Z,100.00
2022-07-27T04:10:04.921Z,100.00
2022-07-27T04:12:32.020Z,100.00
2022-07-27T04:14:58.956Z,100.00
2022-07-27T04:17:56.351Z,100.00
2022-07-27T04:20:13.126Z,100.00
2022-07-27T04:22:41.845Z,100.00
2022-07-27T04:25:09.213Z,100.00
2022-07-27T04:27:36.307Z,100.00
2022-07-27T04:30:09.213Z,100.00
2022-07-27T04:32:37.530Z,100.00
2022-07-27T04:35:06.365Z,100.00
2022-07-27T04:37:34.023Z,100.00
2022-07-27T04:40:01.350Z,100.00
2022-07-27T04:42:30.114Z,100.00
2022-07-27T04:44:57.841Z,100.00
2022-07-27T04:47:24.789Z,100.00
2022-07-27T04:49:52.015Z,100.00
2022-07-27T04:52:19.390Z,100.00
2022-07-27T04:54:54.614Z,100.00
2022-07-27T04:57:23.323Z,100.00
2022-07-27T04:59:50.348Z,100.00
2022-07-27T05:02:17.361Z,100.00
2022-07-27T05:04:44.304Z,100.00
2022-07-27T05:07:11.309Z,100.00
2022-07-27T05:09:38.272Z,100.00
2022-07-27T05:12:05.353Z,100.00
2022-07-27T05:14:32.350Z,100.00
2022-07-27T05:16:59.425Z,100.00
2022-07-27T05:19:40.409Z,100.00
2022-07-27T05:22:08.788Z,100.00
2022-07-27T05:24:35.799Z,100.00
2022-07-27T05:27:02.786Z,100.00
2022-07-27T05:29:29.709Z,100.00
2022-07-27T05:31:56.751Z,100.00
2022-07-27T05:34:23.796Z,100.00
2022-07-27T05:36:50.762Z,100.00
2022-07-27T05:39:18.019Z,100.00
2022-07-27T05:41:45.246Z,100.00
2022-07-27T05:44:12.213Z,100.00
2022-07-27T05:46:39.351Z,100.00
2022-07-27T05:49:06.528Z,100.00
2022-07-27T05:51:33.590Z,100.00
2022-07-27T05:54:00.576Z,100.00
2022-07-27T05:56:27.740Z,100.00
2022-07-27T05:58:54.861Z,100.00
2022-07-27T06:01:22.185Z,100.00
2022-07-27T06:03:49.367Z,100.00
2022-07-27T06:06:35.203Z,100.00
2022-07-27T06:09:02.376Z,100.00
2022-07-27T06:11:29.309Z,100.00
2022-07-27T06:13:56.503Z,100.00
2022-07-27T06:16:23.994Z,100.00
2022-07-27T06:18:51.165Z,100.00
2022-07-27T06:21:18.185Z,100.00
2022-07-27T06:23:45.318Z,100.00
2022-07-27T06:26:12.234Z,100.00
2022-07-27T06:28:39.175Z,100.00
2022-07-27T06:31:06.245Z,100.00
2022-07-27T06:33:34.426Z,100.00
2022-07-27T06:36:02.566Z,100.00
2022-07-27T06:38:30.160Z,100.00
2022-07-27T06:40:57.138Z,100.00
2022-07-27T06:43:26.413Z,100.00
2022-07-27T06:45:54.775Z,100.00
2022-07-27T06:48:22.450Z,100.00
2022-07-27T06:50:50.114Z,100.00
2022-07-27T06:53:20.793Z,100.00
2022-07-27T06:55:48.418Z,100.00
2022-07-27T06:58:15.340Z,100.00
2022-07-27T07:00:42.423Z,100.00
2022-07-27T07:03:10.238Z,100.00
2022-07-27T07:05:46.008Z,100.00
2022-07-27T07:08:13.787Z,100.00
2022-07-27T07:10:44.888Z,100.00
2022-07-27T07:13:12.659Z,100.00
2022-07-27T07:15:41.678Z,100.00
2022-07-27T07:18:09.495Z,100.00
2022-07-27T07:20:37.983Z,100.00
2022-07-27T07:23:05.974Z,100.00
2022-07-27T07:25:33.854Z,100.00
2022-07-27T07:28:00.942Z,100.00
2022-07-27T07:30:28.543Z,100.00
2022-07-27T07:32:56.441Z,100.00
2022-07-27T07:35:24.113Z,100.00
2022-07-27T07:37:51.276Z,100.00
2022-07-27T07:43:07.388Z,100.00
2022-07-27T07:45:45.177Z,100.00
2022-07-27T07:48:22.385Z,100.00
2022-07-27T07:50:52.136Z,100.00
2022-07-27T07:53:23.111Z,100.00
2022-07-27T07:55:51.487Z,100.00
2022-07-27T07:58:19.008Z,100.00
2022-07-27T08:00:46.347Z,100.00
2022-07-27T08:03:13.498Z,100.00
2022-07-27T08:05:40.620Z,100.00
2022-07-27T08:08:07.606Z,100.00
2022-07-27T08:10:34.543Z,100.00
2022-07-27T08:13:01.614Z,100.00
2022-07-27T08:15:34.627Z,100.00
2022-07-27T08:18:05.357Z,100.00
2022-07-27T08:20:33.176Z,100.00
2022-07-27T08:23:00.723Z,100.00
2022-07-27T08:25:27.823Z,100.00
2022-07-27T08:27:55.571Z,100.00
2022-07-27T08:30:24.251Z,100.00
2022-07-27T08:33:01.154Z,100.00
2022-07-27T08:35:29.945Z,100.00
2022-07-27T08:37:57.518Z,100.00
2022-07-27T08:40:39.693Z,100.00
2022-07-27T08:43:08.915Z,100.00
2022-07-27T08:45:37.512Z,100.00
2022-07-27T08:48:05.472Z,100.00
2022-07-27T08:50:34.906Z,100.00
2022-07-27T08:53:07.485Z,100.00
2022-07-27T08:55:43.506Z,100.00
2022-07-27T08:58:12.495Z,100.00
2022-07-27T09:00:41.698Z,100.00
2022-07-27T09:03:18.420Z,100.00
2022-07-27T09:05:48.729Z,100.00
2022-07-27T09:08:18.257Z,100.00
2022-07-27T09:10:45.254Z,100.00
2022-07-27T09:13:33.477Z,100.00
2022-07-27T09:16:21.909Z,100.00
2022-07-27T09:18:58.487Z,100.00
2022-07-27T09:21:25.918Z,100.00
2022-07-27T09:23:53.966Z,100.00
2022-07-27T09:26:31.949Z,100.00
2022-07-27T09:29:08.076Z,100.00
2022-07-27T09:32:14.744Z,100.00
2022-07-27T09:34:41.798Z,100.00
2022-07-27T09:37:10.961Z,100.00
2022-07-27T09:39:39.267Z,100.00
2022-07-27T09:42:08.128Z,100.00
2022-07-27T10:16:37.918Z,35.86
2022-07-27T10:19:45.233Z,34.96
2022-07-27T10:22:11.989Z,35.06
2022-07-27T10:24:39.189Z,35.41
2022-07-27T10:27:28.012Z,34.88
2022-07-27T10:29:56.610Z,35.71
2022-07-27T10:32:25.372Z,33.42
2022-07-27T10:34:52.408Z,33.75
2022-07-27T10:37:32.661Z,34.71
2022-07-27T10:40:27.559Z,34.16
2022-07-27T10:43:26.678Z,35.58
2022-07-27T10:46:01.394Z,35.90
2022-07-27T10:48:47.796Z,34.98
2022-07-27T10:51:17.003Z,36.51
2022-07-27T10:54:10.850Z,36.15
2022-07-27T10:56:46.894Z,37.19
2022-07-27T10:59:14.156Z,37.27
2022-07-27T11:01:57.790Z,37.11
2022-07-27T11:04:25.201Z,37.37
2022-07-27T11:07:23.510Z,36.81
2022-07-27T11:12:31.582Z,37.53
2022-07-27T11:14:59.007Z,37.59
2022-07-27T11:20:14.819Z,38.00
2022-07-27T11:25:29.297Z,39.74
2022-07-27T11:27:56.306Z,39.52
2022-07-27T11:30:28.015Z,39.68
2022-07-27T11:32:56.041Z,40.61
2022-07-27T11:35:24.245Z,38.01
2022-07-27T11:38:03.912Z,39.48
2022-07-27T11:40:58.035Z,40.64
2022-07-27T11:43:42.070Z,41.12
2022-07-27T11:46:28.108Z,41.78
2022-07-27T11:49:09.198Z,40.36
2022-07-27T11:51:47.808Z,41.11
2022-07-27T11:54:23.556Z,41.25
2022-07-27T11:56:53.684Z,41.80
2022-07-27T11:59:22.687Z,41.74
2022-07-27T12:02:01.152Z,42.34
2022-07-27T12:04:33.467Z,41.78
2022-07-27T12:07:02.497Z,43.27
2022-07-27T12:09:38.089Z,42.32
2022-07-27T12:12:08.738Z,42.70
2022-07-27T12:14:38.666Z,43.25
2022-07-27T12:17:30.300Z,45.02
2022-07-27T12:20:05.470Z,43.18
2022-07-27T12:22:36.299Z,43.90
2022-07-27T12:25:18.510Z,45.83
2022-07-27T12:27:55.063Z,45.94
2022-07-27T12:30:42.278Z,46.84
2022-07-27T12:33:36.983Z,47.13
2022-07-27T12:36:06.851Z,46.40
2022-07-27T12:38:51.936Z,44.97
2022-07-27T12:41:31.125Z,44.49
2022-07-27T12:44:09.256Z,45.41
2022-07-27T12:47:02.557Z,44.78
2022-07-27T12:49:34.782Z,44.62
2022-07-27T12:52:08.516Z,44.03
2022-07-27T12:54:35.648Z,45.45
2022-07-27T12:57:03.398Z,46.29
2022-07-27T12:59:30.455Z,47.10
2022-07-27T13:01:57.692Z,47.17
2022-07-27T13:04:24.789Z,47.19
2022-07-27T13:06:51.744Z,45.80
2022-07-27T13:09:18.754Z,45.33
2022-07-27T13:11:48.131Z,46.25
2022-07-27T13:14:15.673Z,46.20
2022-07-27T13:16:42.711Z,45.75
2022-07-27T13:19:10.476Z,45.07
2022-07-27T13:21:37.994Z,45.46
2022-07-27T13:24:07.161Z,45.78
2022-07-27T13:26:34.099Z,47.36
2022-07-27T13:29:01.103Z,48.24
2022-07-27T13:31:28.617Z,50.13
2022-07-27T13:33:55.949Z,49.50
2022-07-27T13:36:23.040Z,50.73
2022-07-27T13:38:50.303Z,49.62
2022-07-27T13:41:17.477Z,51.97
2022-07-27T13:43:44.381Z,51.08
2022-07-27T13:46:11.362Z,51.53
2022-07-27T13:48:38.333Z,51.70
2022-07-27T13:51:05.364Z,50.83
2022-07-27T13:53:32.367Z,48.13
2022-07-27T13:55:59.406Z,48.32
2022-07-27T13:58:26.342Z,47.36
2022-07-27T14:00:53.451Z,46.71
2022-07-27T14:03:20.718Z,47.00
2022-07-27T14:05:49.103Z,47.79
2022-07-27T14:08:21.971Z,48.71
2022-07-27T14:10:49.481Z,50.93
2022-07-27T14:13:21.682Z,53.00
2022-07-27T14:15:53.700Z,52.00
2022-07-27T14:18:27.605Z,52.93
2022-07-27T14:20:56.442Z,53.84
2022-07-27T14:23:25.190Z,52.85
2022-07-27T14:25:53.328Z,52.64
2022-07-27T14:28:20.741Z,53.58
2022-07-27T14:30:49.041Z,54.88
2022-07-27T14:33:16.963Z,54.84
2022-07-27T14:35:45.297Z,56.76
2022-07-27T14:38:12.434Z,58.41
2022-07-27T14:40:40.679Z,59.71
2022-07-27T14:43:09.163Z,60.54
2022-07-27T14:45:44.001Z,60.33
2022-07-27T14:48:21.480Z,60.25
2022-07-27T14:50:52.350Z,61.72
2022-07-27T14:53:19.321Z,62.06
2022-07-27T14:55:46.231Z,63.39
2022-07-27T14:58:13.285Z,62.96
2022-07-27T15:00:40.474Z,62.11
2022-07-27T15:03:07.543Z,61.84
2022-07-27T15:05:49.343Z,62.72
2022-07-27T15:08:20.137Z,60.79
2022-07-27T15:10:47.597Z,61.17
2022-07-27T15:13:15.024Z,61.42
2022-07-27T15:15:42.226Z,61.53
2022-07-27T15:18:09.193Z,62.04
2022-07-27T15:20:36.568Z,61.74
2022-07-27T15:23:04.234Z,61.19
2022-07-27T15:25:31.272Z,61.70
2022-07-27T15:27:58.420Z,60.85
2022-07-27T15:30:25.407Z,62.27
2022-07-27T15:32:52.607Z,63.08
2022-07-27T15:35:19.529Z,63.53
2022-07-27T15:37:54.049Z,63.38
2022-07-27T15:40:37.606Z,63.76
2022-07-27T15:43:15.665Z,63.65
2022-07-27T15:45:45.719Z,63.29
2022-07-27T15:48:13.897Z,63.80
2022-07-27T15:50:44.150Z,65.31
2022-07-27T15:53:11.684Z,66.30
2022-07-27T15:55:38.902Z,66.95
2022-07-27T15:58:06.913Z,68.04
2022-07-27T16:00:39.559Z,67.34
2022-07-27T16:03:10.085Z,67.03
2022-07-27T16:05:38.587Z,67.94
2022-07-27T16:08:07.712Z,68.08
2022-07-27T16:10:34.786Z,68.74
2022-07-27T16:13:02.050Z,68.90
2022-07-27T16:15:48.066Z,69.80
2022-07-27T16:18:14.991Z,69.79
2022-07-27T16:20:42.160Z,69.92
2022-07-27T16:23:19.155Z,70.32
2022-07-27T16:26:10.031Z,70.91
2022-07-27T16:28:39.972Z,71.12
2022-07-27T16:31:09.093Z,71.86
2022-07-27T16:33:36.731Z,72.04
2022-07-27T16:36:05.584Z,72.15
2022-07-27T16:38:32.916Z,72.67
2022-07-27T16:41:00.249Z,72.81
2022-07-27T16:43:35.653Z,72.27
2022-07-27T16:46:08.935Z,72.73
2022-07-27T16:48:42.704Z,73.54
2022-07-27T16:51:16.078Z,74.13
2022-07-27T16:53:45.408Z,73.52
2022-07-27T16:56:12.812Z,73.12
2022-07-27T16:58:39.961Z,72.77
2022-07-27T17:01:08.084Z,72.29
2022-07-27T17:03:35.368Z,71.71
2022-07-27T17:06:05.896Z,72.46
2022-07-27T17:08:35.167Z,73.73
2022-07-27T17:11:02.472Z,74.70
2022-07-27T17:13:33.653Z,75.42
2022-07-27T17:16:03.420Z,75.65
2022-07-27T17:18:37.195Z,76.14
2022-07-27T17:21:07.549Z,77.24
2022-07-27T17:23:38.385Z,76.88
2022-07-27T17:26:08.053Z,77.06
2022-07-27T17:28:39.388Z,77.23
2022-07-27T17:31:10.296Z,78.07
2022-07-27T17:33:39.397Z,78.90
2022-07-27T17:36:12.322Z,80.22
2022-07-27T17:38:45.953Z,80.75
2022-07-27T17:41:14.534Z,81.27
2022-07-27T17:43:42.036Z,81.69
2022-07-27T17:46:10.760Z,82.51
2022-07-27T17:48:39.214Z,83.10
2022-07-27T17:51:07.952Z,83.87
2022-07-27T17:53:35.106Z,84.29
2022-07-27T17:56:02.938Z,85.01
2022-07-27T17:58:30.592Z,86.14
2022-07-27T18:00:57.836Z,87.08
2022-07-27T18:03:24.880Z,87.78
2022-07-27T18:05:51.945Z,88.56
2022-07-27T18:08:19.053Z,89.20
2022-07-27T18:10:46.103Z,90.32
2022-07-27T18:13:13.064Z,91.24
2022-07-27T18:15:49.054Z,91.74
2022-07-27T18:18:27.409Z,92.21
2022-07-27T18:20:56.387Z,91.88
2022-07-27T18:23:28.127Z,91.95
2022-07-27T18:25:55.124Z,92.35
2022-07-27T18:28:22.288Z,92.51
2022-07-27T18:30:51.139Z,92.84
2022-07-27T18:33:19.192Z,93.25
2022-07-27T18:35:47.048Z,93.01
2022-07-27T18:38:14.697Z,93.00
2022-07-27T18:40:45.652Z,93.27
2022-07-27T18:43:13.089Z,93.67
2022-07-27T18:45:40.669Z,93.44
2022-07-27T18:48:10.238Z,93.41
2022-07-27T18:50:40.863Z,93.16
2022-07-27T18:53:08.733Z,93.58
2022-07-27T18:55:36.326Z,93.45
2022-07-27T18:58:04.055Z,93.86
2022-07-27T19:00:32.256Z,94.37
2022-07-27T19:02:59.781Z,94.36
2022-07-27T19:05:40.400Z,94.85
2022-07-27T19:08:13.472Z,96.33
2022-07-27T19:10:44.815Z,96.88
2022-07-27T19:13:12.680Z,97.41
2022-07-27T19:15:40.310Z,97.90
2022-07-27T19:18:08.195Z,98.86
2022-07-27T19:20:36.793Z,99.57
2022-07-27T19:23:07.161Z,100.00
2022-07-27T19:25:35.011Z,100.00
2022-07-27T19:28:03.336Z,100.00
2022-07-27T19:30:30.382Z,100.00
2022-07-27T19:32:57.564Z,100.00
2022-07-27T19:35:24.781Z,100.00
2022-07-27T19:37:51.761Z,100.00
2022-07-27T19:43:06.043Z,100.00
2022-07-27T19:45:33.571Z,100.00
2022-07-27T19:48:04.949Z,100.00
2022-07-27T19:50:31.936Z,100.00
2022-07-27T19:52:58.882Z,100.00
2022-07-27T19:55:25.815Z,100.00
2022-07-27T19:57:52.922Z,100.00
2022-07-27T20:00:19.955Z,100.00
2022-07-27T20:02:48.355Z,100.00
2022-07-27T20:05:15.439Z,100.00
2022-07-27T20:07:43.490Z,100.00
2022-07-27T20:10:11.271Z,100.00
2022-07-27T20:12:38.467Z,100.00
2022-07-27T20:15:06.731Z,100.00
2022-07-27T20:17:37.167Z,100.00
2022-07-27T20:20:05.959Z,100.00
2022-07-27T20:22:33.056Z,100.00
2022-07-27T20:25:00.062Z,100.00
2022-07-27T20:27:27.122Z,100.00
2022-07-27T20:29:54.267Z,100.00
2022-07-27T20:32:21.179Z,100.00
2022-07-27T20:34:48.546Z,100.00
2022-07-27T20:37:16.576Z,100.00
2022-07-27T20:39:43.553Z,100.00
2022-07-27T20:42:11.107Z,100.00
2022-07-27T20:44:38.074Z,100.00
2022-07-27T20:47:06.451Z,100.00
2022-07-27T20:49:34.492Z,100.00
2022-07-27T20:52:02.047Z,100.00
2022-07-27T20:54:29.868Z,100.00
2022-07-27T20:56:57.466Z,100.00
2022-07-27T20:59:24.578Z,100.00
2022-07-27T21:01:51.861Z,100.00
2022-07-27T21:04:19.287Z,100.00
2022-07-27T21:06:46.672Z,100.00
2022-07-27T21:09:14.207Z,100.00
2022-07-27T21:11:41.492Z,100.00
2022-07-27T21:14:09.752Z,100.00
2022-07-27T21:16:37.473Z,100.00
2022-07-27T21:19:04.696Z,100.00
2022-07-27T21:21:31.761Z,100.00
2022-07-27T21:24:18.166Z,100.00
2022-07-27T21:26:46.762Z,100.00
2022-07-27T21:29:15.826Z,100.00
2022-07-27T21:31:48.177Z,100.00
2022-07-27T21:34:20.042Z,100.00
2022-07-27T21:36:48.339Z,100.00
2022-07-27T21:39:16.121Z,100.00
2022-07-27T21:41:43.059Z,100.00
2022-07-27T21:44:10.368Z,100.00
2022-07-27T21:46:37.549Z,100.00
2022-07-27T21:49:04.953Z,100.00
2022-07-27T21:51:32.174Z,100.00
2022-07-27T21:53:59.509Z,100.00
2022-07-27T21:56:26.807Z,100.00
2022-07-27T21:58:53.753Z,100.00
2022-07-27T22:01:21.048Z,100.00
2022-07-27T22:03:48.390Z,100.00
2022-07-27T22:06:15.636Z,100.00
2022-07-27T22:08:42.739Z,100.00
2022-07-27T22:11:10.277Z,100.00
2022-07-27T22:13:37.244Z,100.00
2022-07-27T22:16:05.108Z,100.00
2022-07-27T22:18:32.202Z,100.00
2022-07-27T22:20:59.137Z,100.00
2022-07-27T22:23:26.336Z,100.00
2022-07-27T22:25:53.354Z,100.00
2022-07-27T22:28:20.599Z,100.00
2022-07-27T22:31:17.472Z,100.00
2022-07-27T22:33:39.946Z,100.00
2022-07-27T22:36:12.135Z,100.00
2022-07-27T22:38:39.315Z,100.00
2022-07-27T22:41:06.927Z,100.00
2022-07-27T22:43:34.116Z,100.00
2022-07-27T22:46:03.409Z,100.00
2022-07-27T22:48:30.355Z,100.00
2022-07-27T22:50:57.624Z,100.00
2022-07-27T22:53:24.612Z,100.00
2022-07-27T22:55:51.649Z,100.00
2022-07-27T22:58:18.670Z,100.00
2022-07-27T23:00:45.689Z,100.00
2022-07-27T23:03:12.742Z,100.00
2022-07-27T23:05:39.708Z,100.00
2022-07-27T23:08:06.698Z,100.00
2022-07-27T23:10:46.312Z,100.00
2022-07-27T23:13:18.612Z,100.00
2022-07-27T23:15:47.014Z,100.00
2022-07-27T23:18:14.328Z,100.00
2022-07-27T23:20:41.730Z,100.00
2022-07-27T23:23:12.411Z,100.00
2022-07-27T23:25:44.476Z,100.00
2022-07-27T23:28:11.792Z,100.00
2022-07-27T23:30:38.984Z,100.00
2022-07-27T23:33:06.240Z,100.00
2022-07-27T23:35:33.435Z,100.00
2022-07-27T23:38:00.469Z,100.00
2022-07-27T23:40:28.110Z,100.00
2022-07-27T23:42:55.116Z,100.00
2022-07-27T23:45:22.118Z,100.00
2022-07-27T23:47:49.057Z,100.00
2022-07-27T23:50:16.350Z,100.00
2022-07-27T23:52:43.386Z,100.00
2022-07-27T23:55:10.749Z,100.00
2022-07-27T23:57:37.769Z,100.00
